Welcome to Northern Hawkes Bay. New Zealand.
PWS Header
      nz Flag



Hit Counter


W3C Valid W3C Valid logo


    Wairoa

Select any of the Stations below to visit their websites.










Historic Data from Weather Underground
Select the location of interest below. Wairoa is the default. Please have patience, this Data is slow to load in.
Northern Hawkes Bay Historical Data
 
Daily Summary for December 14, 2018 Units:  Metric    English   Both
« Previous Day
Next Day »
Daily Weekly Monthly Yearly Custom
  Current: High: Low: Average:
Temperature: 21.0 °C 23.4 °C 15.4 °C 18 °C
Dew Point: 17.2 °C 18.3 °C 15.3 °C 16.7 °C
Humidity: 79% 99% 71% 93%
Wind Speed: 7.2km/h 9.7km/h 0.0km/h 1.9km/h
Wind Gust: 13.4km/h 15.8km/h - -
WindWSW - - SSW
Pressure: 1018.0 hPa 1018.4 hPa 1015.9 hPa -
Precipitation: 0.3 mm      
Historical Graphs
 
 
Tabular Data for December 14, 2018
Time Temperature Dew Point Pressure Wind Wind Speed Wind Gust Humidity Rainfall Rate (Hourly) solar
00:04 17.5 °C 17.1 °C 1016.9 hPa Calm     97% 0.0 mm 0.00 W/m2
00:09 17.4 °C 16.9 °C 1017.0 hPa Calm     97% 0.0 mm 0.00 W/m2
00:14 17.4 °C 16.9 °C 1017.0 hPa Calm     97% 0.0 mm 0.00 W/m2
00:19 17.3 °C 16.8 °C 1016.7 hPa Calm     97% 0.0 mm 0.00 W/m2
00:24 17.3 °C 16.8 °C 1016.8 hPa Calm     97% 0.0 mm 0.00 W/m2
00:29 17.3 °C 16.8 °C 1017.1 hPa Calm     97% 0.0 mm 0.00 W/m2
00:34 17.3 °C 16.8 °C 1016.9 hPa Calm     97% 0.0 mm 0.00 W/m2
00:39 17.3 °C 16.8 °C 1016.7 hPa Calm     97% 0.0 mm 0.00 W/m2
00:44 17.3 °C 16.8 °C 1016.8 hPa Calm     97% 0.0 mm 0.00 W/m2
00:49 17.3 °C 16.8 °C 1016.9 hPa Calm     97% 0.0 mm 0.00 W/m2
00:54 17.3 °C 16.8 °C 1016.8 hPa Calm     97% 0.0 mm 0.00 W/m2
00:59 17.3 °C 16.8 °C 1016.9 hPa Calm     97% 0.0 mm 0.00 W/m2
01:04 17.2 °C 16.7 °C 1017.0 hPa Calm     97% 0.0 mm 0.00 W/m2
01:09 17.2 °C 16.7 °C 1016.9 hPa Calm     97% 0.0 mm 0.00 W/m2
01:14 17.2 °C 16.7 °C 1016.8 hPa Calm     97% 0.0 mm 0.00 W/m2
01:19 17.1 °C 16.6 °C 1016.7 hPa Calm     97% 0.0 mm 0.00 W/m2
01:24 17.1 °C 16.6 °C 1016.7 hPa Calm     97% 0.0 mm 0.00 W/m2
01:29 17.1 °C 16.6 °C 1016.6 hPa Calm     97% 0.0 mm 0.00 W/m2
01:34 17.1 °C 16.6 °C 1016.6 hPa Calm     97% 0.0 mm 0.00 W/m2
01:39 17.1 °C 16.6 °C 1016.5 hPa Calm     97% 0.0 mm 0.00 W/m2
01:44 17.0 °C 16.6 °C 1016.5 hPa Calm     97% 0.0 mm 0.00 W/m2
01:49 17.0 °C 16.6 °C 1016.4 hPa Calm     97% 0.0 mm 0.00 W/m2
01:54 17.0 °C 16.6 °C 1016.4 hPa Calm     97% 0.0 mm 0.00 W/m2
01:59 17.1 °C 16.6 °C 1016.5 hPa Calm     97% 0.0 mm 0.00 W/m2
02:04 17.1 °C 16.6 °C 1016.5 hPa Calm   3.5 km/h 97% 0.0 mm 0.00 W/m2
02:09 17.1 °C 16.6 °C 1016.5 hPa NW 1.1 km/h 3.5 km/h 97% 0.0 mm 0.00 W/m2
02:14 17.1 °C 16.6 °C 1016.5 hPa Calm   3.5 km/h 97% 0.0 mm 0.00 W/m2
02:19 17.1 °C 16.6 °C 1016.3 hPa Calm   3.5 km/h 97% 0.0 mm 0.00 W/m2
02:24 17.1 °C 16.6 °C 1016.3 hPa Calm     97% 0.0 mm 0.00 W/m2
02:29 17.1 °C 16.6 °C 1016.2 hPa Calm     97% 0.0 mm 0.00 W/m2
02:34 17.1 °C 16.6 °C 1016.1 hPa Calm     97% 0.0 mm 0.00 W/m2
02:39 17.1 °C 16.6 °C 1016.1 hPa Calm     97% 0.0 mm 0.00 W/m2
02:44 17.1 °C 16.6 °C 1016.3 hPa Calm     97% 0.0 mm 0.00 W/m2
02:49 17.1 °C 16.6 °C 1016.2 hPa Calm     97% 0.0 mm 0.00 W/m2
02:54 17.1 °C 16.6 °C 1016.3 hPa Calm   1.1 km/h 97% 0.0 mm 0.00 W/m2
02:59 17.0 °C 16.6 °C 1016.1 hPa Calm   1.1 km/h 97% 0.0 mm 0.00 W/m2
03:04 16.9 °C 16.6 °C 1016.0 hPa Calm     98% 0.0 mm 0.00 W/m2
03:09 16.9 °C 16.6 °C 1015.9 hPa Calm     98% 0.0 mm 0.00 W/m2
03:14 16.9 °C 16.6 °C 1016.0 hPa Calm     98% 0.0 mm 0.00 W/m2
03:19 16.8 °C 16.5 °C 1015.9 hPa Calm     98% 0.0 mm 0.00 W/m2
03:24 16.8 °C 16.5 °C 1015.9 hPa Calm     98% 0.0 mm 0.00 W/m2
03:29 16.8 °C 16.5 °C 1016.0 hPa Calm     98% 0.0 mm 0.00 W/m2
03:34 16.7 °C 16.4 °C 1015.9 hPa Calm     98% 0.0 mm 0.00 W/m2
03:39 16.7 °C 16.4 °C 1016.1 hPa Calm   6.1 km/h 98% 0.0 mm 0.00 W/m2
03:44 16.7 °C 16.4 °C 1016.0 hPa Calm   6.1 km/h 98% 0.0 mm 0.00 W/m2
03:49 16.7 °C 16.4 °C 1015.9 hPa Calm   7.2 km/h 98% 0.0 mm 0.00 W/m2
03:54 16.6 °C 16.3 °C 1016.0 hPa Calm   7.2 km/h 98% 0.0 mm 0.00 W/m2
03:59 16.6 °C 16.3 °C 1016.0 hPa Calm   3.5 km/h 98% 0.0 mm 0.00 W/m2
04:04 16.5 °C 16.2 °C 1015.9 hPa Calm   3.5 km/h 98% 0.0 mm 0.00 W/m2
04:09 16.5 °C 16.2 °C 1016.0 hPa Calm     98% 0.0 mm 0.00 W/m2
04:14 16.5 °C 16.2 °C 1016.1 hPa Calm     98% 0.0 mm 0.00 W/m2
04:19 16.5 °C 16.2 °C 1016.2 hPa Calm     98% 0.0 mm 0.00 W/m2
04:24 16.4 °C 16.1 °C 1016.1 hPa Calm     98% 0.0 mm 0.00 W/m2
04:29 16.3 °C 16.0 °C 1016.1 hPa Calm     98% 0.0 mm 0.00 W/m2
04:34 16.3 °C 16.0 °C 1016.2 hPa Calm     98% 0.0 mm 0.00 W/m2
04:39 16.2 °C 15.9 °C 1016.1 hPa Calm     98% 0.0 mm 0.00 W/m2
04:44 16.2 °C 15.9 °C 1016.2 hPa Calm     98% 0.0 mm 0.00 W/m2
04:49 16.1 °C 15.8 °C 1016.2 hPa Calm     98% 0.0 mm 0.00 W/m2
04:54 16.1 °C 15.8 °C 1016.3 hPa NW 1.1 km/h 3.5 km/h 98% 0.0 mm 0.00 W/m2
04:59 16.0 °C 15.7 °C 1016.4 hPa NW 3.5 km/h 6.1 km/h 98% 0.0 mm 0.00 W/m2
05:04 15.9 °C 15.8 °C 1016.3 hPa NW 3.5 km/h 7.2 km/h 99% 0.0 mm 0.00 W/m2
05:09 15.9 °C 15.8 °C 1016.4 hPa Calm   7.2 km/h 99% 0.0 mm 0.00 W/m2
05:14 15.8 °C 15.7 °C 1016.4 hPa Calm   6.1 km/h 99% 0.0 mm 0.00 W/m2
05:19 15.7 °C 15.6 °C 1016.3 hPa Calm   6.1 km/h 99% 0.0 mm 0.00 W/m2
05:24 15.7 °C 15.6 °C 1016.3 hPa Calm     99% 0.0 mm 0.00 W/m2
05:29 15.6 °C 15.4 °C 1016.4 hPa Calm     99% 0.0 mm 0.00 W/m2
05:34 15.5 °C 15.3 °C 1016.2 hPa Calm     99% 0.0 mm 0.00 W/m2
05:39 15.5 °C 15.3 °C 1016.2 hPa Calm     99% 0.0 mm 0.00 W/m2
05:44 15.4 °C 15.3 °C 1016.4 hPa Calm     99% 0.0 mm 4.00 W/m2
05:49 15.4 °C 15.3 °C 1016.5 hPa Calm     99% 0.0 mm 7.00 W/m2
05:54 15.4 °C 15.3 °C 1016.4 hPa Calm     99% 0.0 mm 12.00 W/m2
05:59 15.4 °C 15.3 °C 1016.5 hPa Calm     99% 0.0 mm 18.00 W/m2
06:04 15.4 °C 15.3 °C 1016.6 hPa Calm     99% 0.0 mm 27.00 W/m2
06:09 15.5 °C 15.3 °C 1016.6 hPa Calm     99% 0.0 mm 39.00 W/m2
06:14 15.8 °C 15.7 °C 1016.6 hPa Calm     99% 0.0 mm 50.00 W/m2
06:19 16.1 °C 15.8 °C 1016.7 hPa Calm     98% 0.0 mm 48.00 W/m2
06:24 16.1 °C 15.8 °C 1016.7 hPa Calm     98% 0.0 mm 52.00 W/m2
06:29 16.0 °C 15.7 °C 1016.8 hPa Calm     98% 0.0 mm 76.00 W/m2
06:34 16.4 °C 16.1 °C 1016.8 hPa Calm     98% 0.0 mm 59.00 W/m2
06:35 16.4 °C 16.1 °C 1016.7 hPa Calm     98% 0.0 mm 58.00 W/m2
06:54 16.1 °C 15.8 °C 1017.3 hPa North 2.6 km/h 5.0 km/h 98% 0.0 mm 57.00 W/m2
06:59 16.1 °C 15.8 °C 1017.2 hPa North 5.0 km/h 7.2 km/h 98% 0.0 mm 55.00 W/m2
07:04 16.0 °C 15.7 °C 1017.3 hPa NNW 5.0 km/h 8.7 km/h 98% 0.0 mm 55.00 W/m2
07:09 16.0 °C 15.7 °C 1017.4 hPa NNW 5.0 km/h 8.7 km/h 98% 0.0 mm 57.00 W/m2
07:14 15.9 °C 15.8 °C 1017.4 hPa NNW 3.5 km/h 8.7 km/h 99% 0.0 mm 75.00 W/m2
07:19 16.0 °C 15.7 °C 1017.3 hPa NNW 3.5 km/h 7.2 km/h 98% 0.0 mm 86.00 W/m2
07:24 16.0 °C 15.7 °C 1017.4 hPa Calm   7.2 km/h 98% 0.0 mm 108.00 W/m2
07:29 16.2 °C 15.9 °C 1017.5 hPa NNE 3.5 km/h 7.2 km/h 98% 0.0 mm 139.00 W/m2
07:34 16.4 °C 16.1 °C 1017.4 hPa Calm   6.1 km/h 98% 0.0 mm 167.00 W/m2
07:39 16.7 °C 16.4 °C 1017.6 hPa North 5.0 km/h 7.2 km/h 98% 0.0 mm 168.00 W/m2
07:44 16.9 °C 16.6 °C 1017.6 hPa North 5.0 km/h 9.7 km/h 98% 0.0 mm 237.00 W/m2
07:49 17.4 °C 16.9 °C 1017.5 hPa North 6.1 km/h 9.7 km/h 97% 0.0 mm 212.00 W/m2
07:54 17.7 °C 17.2 °C 1017.6 hPa NNE 3.5 km/h 9.7 km/h 97% 0.0 mm 245.00 W/m2
07:59 17.9 °C 17.4 °C 1017.6 hPa NNE 3.5 km/h 9.7 km/h 97% 0.0 mm 247.00 W/m2
08:00 17.9 °C 17.4 °C 1017.6 hPa NNE 5.0 km/h 9.7 km/h 97% 0.0 mm 211.00 W/m2
08:19 19.3 °C 18.0 °C 1017.7 hPa North 5.0 km/h 7.2 km/h 92% 0.0 mm 358.00 W/m2
08:24 19.8 °C 17.9 °C 1017.8 hPa NNW 2.6 km/h 9.7 km/h 89% 0.0 mm 294.00 W/m2
08:29 19.9 °C 17.9 °C 1017.8 hPa NNW 3.5 km/h 9.7 km/h 88% 0.0 mm 223.00 W/m2
08:34 19.8 °C 17.4 °C 1017.9 hPa North 1.1 km/h 7.2 km/h 86% 0.0 mm 236.00 W/m2
08:39 19.7 °C 17.3 °C 1017.8 hPa North 5.0 km/h 8.7 km/h 86% 0.0 mm 286.00 W/m2
08:44 19.6 °C 17.4 °C 1017.9 hPa North 2.6 km/h 8.7 km/h 87% 0.0 mm 303.00 W/m2
08:49 20.0 °C 17.6 °C 1017.9 hPa Calm   8.7 km/h 86% 0.0 mm 338.00 W/m2
08:54 20.1 °C 17.5 °C 1017.9 hPa NNW 6.1 km/h 9.7 km/h 85% 0.0 mm 356.00 W/m2
08:59 20.2 °C 17.6 °C 1018.0 hPa NNW 6.1 km/h 11.1 km/h 85% 0.0 mm 320.00 W/m2
09:04 20.3 °C 17.7 °C 1018.0 hPa NNW 3.5 km/h 11.1 km/h 85% 0.0 mm 424.00 W/m2
09:09 20.5 °C 17.7 °C 1018.0 hPa NNW 5.0 km/h 9.7 km/h 84% 0.3 mm 430.00 W/m2
09:14 20.7 °C 17.7 °C 1018.2 hPa Calm   8.7 km/h 83% 0.3 mm 400.00 W/m2
09:19 21.1 °C 17.9 °C 1018.0 hPa NW 2.6 km/h 8.7 km/h 82% 0.3 mm 417.00 W/m2
09:24 21.6 °C 17.8 °C 1018.1 hPa Calm   7.2 km/h 79% 0.3 mm 320.00 W/m2
09:29 22.0 °C 17.8 °C 1018.0 hPa WSW 3.5 km/h 6.1 km/h 77% 0.3 mm 659.00 W/m2
09:34 23.0 °C 18.3 °C 1018.0 hPa Calm   7.2 km/h 75% 0.3 mm 487.00 W/m2
09:39 23.4 °C 17.9 °C 1018.0 hPa Calm   7.2 km/h 71% 0.3 mm 235.00 W/m2
09:44 23.0 °C 17.5 °C 1018.0 hPa Calm   6.1 km/h 71% 0.3 mm 218.00 W/m2
09:49 22.5 °C 17.2 °C 1018.1 hPa Calm   6.1 km/h 72% 0.3 mm 231.00 W/m2
09:54 22.1 °C 17.1 °C 1018.1 hPa ESE 5.0 km/h 6.1 km/h 73% 0.3 mm 236.00 W/m2
09:59 21.7 °C 17.3 °C 1018.1 hPa SE 5.0 km/h 12.2 km/h 76% 0.3 mm 519.00 W/m2
10:04 21.4 °C 17.4 °C 1018.2 hPa ESE 6.1 km/h 12.2 km/h 78% 0.3 mm 467.00 W/m2
10:09 21.8 °C 18.0 °C 1018.3 hPa ESE 8.7 km/h 11.1 km/h 79% 0.0 mm 696.00 W/m2
10:14 22.1 °C 17.7 °C 1018.2 hPa SE 5.0 km/h 11.1 km/h 76% 0.0 mm 620.00 W/m2
10:19 22.1 °C 17.5 °C 1018.2 hPa East 7.2 km/h 11.1 km/h 75% 0.0 mm 478.00 W/m2
10:24 22.1 °C 17.5 °C 1018.2 hPa East 7.2 km/h 11.1 km/h 75% 0.0 mm 361.00 W/m2
10:29 21.6 °C 17.6 °C 1018.1 hPa SSW 7.2 km/h 14.8 km/h 78% 0.0 mm 398.00 W/m2
10:34 21.0 °C 17.4 °C 1018.1 hPa WSW 9.7 km/h 14.8 km/h 80% 0.0 mm 541.00 W/m2
10:39 21.0 °C 17.8 °C 1018.0 hPa SW 5.0 km/h 14.8 km/h 82% 0.0 mm 455.00 W/m2
10:44 21.2 °C 18.0 °C 1018.2 hPa SW 7.2 km/h 14.8 km/h 82% 0.0 mm 493.00 W/m2
10:49 21.2 °C 17.6 °C 1018.2 hPa WSW 6.1 km/h 13.4 km/h 80% 0.0 mm 565.00 W/m2
10:54 21.3 °C 17.5 °C 1018.2 hPa West 8.7 km/h 13.4 km/h 79% 0.0 mm 558.00 W/m2
10:59 21.1 °C 17.1 °C 1018.3 hPa SW 8.7 km/h 13.4 km/h 78% 0.0 mm 547.00 W/m2
11:04 21.1 °C 17.6 °C 1018.1 hPa WSW 7.2 km/h 13.4 km/h 80% 0.0 mm 479.00 W/m2
11:09 21.1 °C 17.6 °C 1018.4 hPa North 8.7 km/h 15.8 km/h 80% 0.0 mm 446.00 W/m2
11:14 21.1 °C 17.9 °C 1018.3 hPa ESE 7.2 km/h 15.8 km/h 82% 0.0 mm 479.00 W/m2
11:19 21.3 °C 17.7 °C 1018.4 hPa SSE 6.1 km/h 13.4 km/h 80% 0.0 mm 369.00 W/m2
11:24 21.4 °C 17.6 °C 1018.2 hPa WSW 8.7 km/h 13.4 km/h 79% 0.0 mm 380.00 W/m2
11:29 21.1 °C 17.6 °C 1018.3 hPa WSW 8.7 km/h 13.4 km/h 80% 0.0 mm 499.00 W/m2
11:34 21.0 °C 17.2 °C 1018.0 hPa WSW 7.2 km/h 13.4 km/h 79% 0.0 mm 441.00 W/m2
Northern Hawkes Bay. New Zealand Historic Data
Compliments of Weather Underground - 2 mb